sensor_id;sensor_type;location;lat;lon;timestamp;temperature;humidity
10123;DHT22;5101;49.038;8.710;2023-02-04T00:00:15;8.50;99.90
10123;DHT22;5101;49.038;8.710;2023-02-04T00:02:41;8.50;99.90
10123;DHT22;5101;49.038;8.710;2023-02-04T00:05:08;8.50;99.90
10123;DHT22;5101;49.038;8.710;2023-02-04T00:07:33;8.50;99.90
10123;DHT22;5101;49.038;8.710;2023-02-04T00:09:59;8.50;99.90
10123;DHT22;5101;49.038;8.710;2023-02-04T00:12:25;8.50;99.90
10123;DHT22;5101;49.038;8.710;2023-02-04T00:14:50;8.50;99.90
10123;DHT22;5101;49.038;8.710;2023-02-04T00:17:16;8.50;99.90
10123;DHT22;5101;49.038;8.710;2023-02-04T00:19:41;8.50;99.90
10123;DHT22;5101;49.038;8.710;2023-02-04T00:22:07;8.50;99.90
10123;DHT22;5101;49.038;8.710;2023-02-04T00:24:37;8.50;99.90
10123;DHT22;5101;49.038;8.710;2023-02-04T00:27:04;8.50;99.90
10123;DHT22;5101;49.038;8.710;2023-02-04T00:29:29;8.50;99.90
10123;DHT22;5101;49.038;8.710;2023-02-04T00:31:55;8.50;99.90
10123;DHT22;5101;49.038;8.710;2023-02-04T00:34:21;8.50;99.90
10123;DHT22;5101;49.038;8.710;2023-02-04T00:36:46;8.50;99.90
10123;DHT22;5101;49.038;8.710;2023-02-04T00:39:12;8.50;99.90
10123;DHT22;5101;49.038;8.710;2023-02-04T00:41:38;8.60;99.90
10123;DHT22;5101;49.038;8.710;2023-02-04T00:44:03;8.50;99.90
10123;DHT22;5101;49.038;8.710;2023-02-04T00:46:29;8.50;99.90
10123;DHT22;5101;49.038;8.710;2023-02-04T00:48:54;8.60;99.90
10123;DHT22;5101;49.038;8.710;2023-02-04T00:51:20;8.50;99.90
10123;DHT22;5101;49.038;8.710;2023-02-04T00:53:45;8.60;99.90
10123;DHT22;5101;49.038;8.710;2023-02-04T00:56:11;8.60;99.90
10123;DHT22;5101;49.038;8.710;2023-02-04T00:58:36;8.60;99.90
10123;DHT22;5101;49.038;8.710;2023-02-04T01:01:02;8.60;99.90
10123;DHT22;5101;49.038;8.710;2023-02-04T01:03:28;8.60;99.90
10123;DHT22;5101;49.038;8.710;2023-02-04T01:05:53;8.60;99.90
10123;DHT22;5101;49.038;8.710;2023-02-04T01:08:19;8.60;99.90
10123;DHT22;5101;49.038;8.710;2023-02-04T01:10:44;8.60;99.90
10123;DHT22;5101;49.038;8.710;2023-02-04T01:13:10;8.60;99.90
10123;DHT22;5101;49.038;8.710;2023-02-04T01:15:35;8.60;99.90
10123;DHT22;5101;49.038;8.710;2023-02-04T01:18:01;8.60;99.90
10123;DHT22;5101;49.038;8.710;2023-02-04T01:20:27;8.60;99.90
10123;DHT22;5101;49.038;8.710;2023-02-04T01:22:52;8.40;99.90
10123;DHT22;5101;49.038;8.710;2023-02-04T01:25:18;8.60;99.90
10123;DHT22;5101;49.038;8.710;2023-02-04T01:27:44;8.60;99.90
10123;DHT22;5101;49.038;8.710;2023-02-04T01:30:11;8.60;99.90
10123;DHT22;5101;49.038;8.710;2023-02-04T01:32:36;8.60;99.90
10123;DHT22;5101;49.038;8.710;2023-02-04T01:35:02;8.70;99.90
10123;DHT22;5101;49.038;8.710;2023-02-04T01:37:28;8.70;99.90
10123;DHT22;5101;49.038;8.710;2023-02-04T01:39:53;8.60;99.90
10123;DHT22;5101;49.038;8.710;2023-02-04T01:42:19;8.60;99.90
10123;DHT22;5101;49.038;8.710;2023-02-04T01:44:44;8.60;99.90
10123;DHT22;5101;49.038;8.710;2023-02-04T01:47:10;8.60;99.90
10123;DHT22;5101;49.038;8.710;2023-02-04T01:49:36;8.60;99.90
10123;DHT22;5101;49.038;8.710;2023-02-04T01:52:02;8.60;99.90
10123;DHT22;5101;49.038;8.710;2023-02-04T01:54:28;8.60;99.90
10123;DHT22;5101;49.038;8.710;2023-02-04T01:56:54;8.60;99.90
10123;DHT22;5101;49.038;8.710;2023-02-04T01:59:20;8.60;99.90
10123;DHT22;5101;49.038;8.710;2023-02-04T02:01:51;8.70;99.90
10123;DHT22;5101;49.038;8.710;2023-02-04T02:04:20;8.70;99.90
10123;DHT22;5101;49.038;8.710;2023-02-04T02:06:51;8.70;99.90
10123;DHT22;5101;49.038;8.710;2023-02-04T02:09:18;8.70;99.90
10123;DHT22;5101;49.038;8.710;2023-02-04T02:11:43;8.70;99.90
10123;DHT22;5101;49.038;8.710;2023-02-04T02:14:10;8.70;99.90
10123;DHT22;5101;49.038;8.710;2023-02-04T02:16:35;8.70;99.90
10123;DHT22;5101;49.038;8.710;2023-02-04T02:19:01;8.70;99.90
10123;DHT22;5101;49.038;8.710;2023-02-04T02:21:41;8.70;99.90
10123;DHT22;5101;49.038;8.710;2023-02-04T02:26:48;8.60;99.90
10123;DHT22;5101;49.038;8.710;2023-02-04T02:29:14;8.50;99.90
10123;DHT22;5101;49.038;8.710;2023-02-04T02:31:39;8.50;99.90
10123;DHT22;5101;49.038;8.710;2023-02-04T02:34:05;8.50;99.90
10123;DHT22;5101;49.038;8.710;2023-02-04T02:36:30;8.50;99.90
10123;DHT22;5101;49.038;8.710;2023-02-04T02:38:56;8.60;99.90
10123;DHT22;5101;49.038;8.710;2023-02-04T02:41:23;8.60;99.90
10123;DHT22;5101;49.038;8.710;2023-02-04T02:43:48;8.60;99.90
10123;DHT22;5101;49.038;8.710;2023-02-04T02:46:14;8.60;99.90
10123;DHT22;5101;49.038;8.710;2023-02-04T02:48:39;8.60;99.90
10123;DHT22;5101;49.038;8.710;2023-02-04T02:51:05;8.60;99.90
10123;DHT22;5101;49.038;8.710;2023-02-04T02:53:30;8.60;99.90
10123;DHT22;5101;49.038;8.710;2023-02-04T02:55:56;8.60;99.90
10123;DHT22;5101;49.038;8.710;2023-02-04T02:58:26;8.60;99.90
10123;DHT22;5101;49.038;8.710;2023-02-04T03:00:52;8.60;99.90
10123;DHT22;5101;49.038;8.710;2023-02-04T03:03:30;8.60;99.90
10123;DHT22;5101;49.038;8.710;2023-02-04T03:06:00;8.60;99.90
10123;DHT22;5101;49.038;8.710;2023-02-04T03:08:28;8.60;99.90
10123;DHT22;5101;49.038;8.710;2023-02-04T03:10:54;8.50;99.90
10123;DHT22;5101;49.038;8.710;2023-02-04T03:13:20;8.70;99.90
10123;DHT22;5101;49.038;8.710;2023-02-04T03:15:47;8.60;99.90
10123;DHT22;5101;49.038;8.710;2023-02-04T03:18:15;8.60;99.90
10123;DHT22;5101;49.038;8.710;2023-02-04T03:20:42;8.50;99.90
10123;DHT22;5101;49.038;8.710;2023-02-04T03:23:08;8.50;99.90
10123;DHT22;5101;49.038;8.710;2023-02-04T03:25:34;8.50;99.90
10123;DHT22;5101;49.038;8.710;2023-02-04T03:27:59;8.40;99.90
10123;DHT22;5101;49.038;8.710;2023-02-04T03:30:26;8.40;99.90
10123;DHT22;5101;49.038;8.710;2023-02-04T03:32:52;8.40;99.90
10123;DHT22;5101;49.038;8.710;2023-02-04T03:35:18;8.30;99.90
10123;DHT22;5101;49.038;8.710;2023-02-04T03:37:44;8.30;99.90
10123;DHT22;5101;49.038;8.710;2023-02-04T03:40:11;8.30;99.90
10123;DHT22;5101;49.038;8.710;2023-02-04T03:42:37;8.30;99.90
10123;DHT22;5101;49.038;8.710;2023-02-04T03:45:02;8.30;99.90
10123;DHT22;5101;49.038;8.710;2023-02-04T03:47:28;8.30;99.90
10123;DHT22;5101;49.038;8.710;2023-02-04T03:49:53;8.30;99.90
10123;DHT22;5101;49.038;8.710;2023-02-04T03:52:19;8.30;99.90
10123;DHT22;5101;49.038;8.710;2023-02-04T03:54:45;8.30;99.90
10123;DHT22;5101;49.038;8.710;2023-02-04T03:57:11;8.20;99.90
10123;DHT22;5101;49.038;8.710;2023-02-04T03:59:37;8.20;99.90
10123;DHT22;5101;49.038;8.710;2023-02-04T04:02:03;8.20;99.90
10123;DHT22;5101;49.038;8.710;2023-02-04T04:04:28;8.20;99.90
10123;DHT22;5101;49.038;8.710;2023-02-04T04:06:54;8.20;99.90
10123;DHT22;5101;49.038;8.710;2023-02-04T04:09:20;8.20;99.90
10123;DHT22;5101;49.038;8.710;2023-02-04T04:11:45;8.20;99.90
10123;DHT22;5101;49.038;8.710;2023-02-04T04:14:11;8.20;99.90
10123;DHT22;5101;49.038;8.710;2023-02-04T04:16:36;8.20;99.90
10123;DHT22;5101;49.038;8.710;2023-02-04T04:19:02;8.20;99.90
10123;DHT22;5101;49.038;8.710;2023-02-04T04:21:28;8.10;99.90
10123;DHT22;5101;49.038;8.710;2023-02-04T04:23:54;8.10;99.90
10123;DHT22;5101;49.038;8.710;2023-02-04T04:26:20;8.20;99.90
10123;DHT22;5101;49.038;8.710;2023-02-04T04:28:45;8.10;99.90
10123;DHT22;5101;49.038;8.710;2023-02-04T04:31:11;8.10;99.90
10123;DHT22;5101;49.038;8.710;2023-02-04T04:33:36;8.10;99.90
10123;DHT22;5101;49.038;8.710;2023-02-04T04:36:04;8.10;99.90
10123;DHT22;5101;49.038;8.710;2023-02-04T04:38:29;8.10;99.90
10123;DHT22;5101;49.038;8.710;2023-02-04T04:40:55;8.10;99.90
10123;DHT22;5101;49.038;8.710;2023-02-04T04:43:20;8.10;99.90
10123;DHT22;5101;49.038;8.710;2023-02-04T04:45:46;8.00;99.90
10123;DHT22;5101;49.038;8.710;2023-02-04T04:48:11;8.10;99.90
10123;DHT22;5101;49.038;8.710;2023-02-04T04:50:37;8.00;99.90
10123;DHT22;5101;49.038;8.710;2023-02-04T04:53:03;8.00;99.90
10123;DHT22;5101;49.038;8.710;2023-02-04T04:55:28;8.00;99.90
10123;DHT22;5101;49.038;8.710;2023-02-04T04:57:54;8.00;99.90
10123;DHT22;5101;49.038;8.710;2023-02-04T05:00:21;8.00;99.90
10123;DHT22;5101;49.038;8.710;2023-02-04T05:02:46;8.00;99.90
10123;DHT22;5101;49.038;8.710;2023-02-04T05:05:12;8.00;99.90
10123;DHT22;5101;49.038;8.710;2023-02-04T05:07:38;8.00;99.90
10123;DHT22;5101;49.038;8.710;2023-02-04T05:10:04;8.10;99.90
10123;DHT22;5101;49.038;8.710;2023-02-04T05:12:30;8.00;99.90
10123;DHT22;5101;49.038;8.710;2023-02-04T05:14:56;8.00;99.90
10123;DHT22;5101;49.038;8.710;2023-02-04T05:17:21;8.10;99.90
10123;DHT22;5101;49.038;8.710;2023-02-04T05:19:47;8.00;99.90
10123;DHT22;5101;49.038;8.710;2023-02-04T05:22:12;8.00;99.90
10123;DHT22;5101;49.038;8.710;2023-02-04T05:24:38;8.00;99.90
10123;DHT22;5101;49.038;8.710;2023-02-04T05:27:04;8.00;99.90
10123;DHT22;5101;49.038;8.710;2023-02-04T05:29:29;8.00;99.90
10123;DHT22;5101;49.038;8.710;2023-02-04T05:31:55;8.00;99.90
10123;DHT22;5101;49.038;8.710;2023-02-04T05:34:21;8.10;99.90
10123;DHT22;5101;49.038;8.710;2023-02-04T05:36:46;8.10;99.90
10123;DHT22;5101;49.038;8.710;2023-02-04T05:39:12;8.10;99.90
10123;DHT22;5101;49.038;8.710;2023-02-04T05:41:37;8.10;99.90
10123;DHT22;5101;49.038;8.710;2023-02-04T05:44:04;8.10;99.90
10123;DHT22;5101;49.038;8.710;2023-02-04T05:46:29;8.10;99.90
10123;DHT22;5101;49.038;8.710;2023-02-04T05:48:55;8.10;99.90
10123;DHT22;5101;49.038;8.710;2023-02-04T05:51:20;8.10;99.90
10123;DHT22;5101;49.038;8.710;2023-02-04T05:53:46;8.10;99.90
10123;DHT22;5101;49.038;8.710;2023-02-04T05:56:11;8.10;99.90
10123;DHT22;5101;49.038;8.710;2023-02-04T05:58:37;8.10;99.90
10123;DHT22;5101;49.038;8.710;2023-02-04T06:01:03;8.00;99.90
10123;DHT22;5101;49.038;8.710;2023-02-04T06:03:29;8.10;99.90
10123;DHT22;5101;49.038;8.710;2023-02-04T06:05:55;8.00;99.90
10123;DHT22;5101;49.038;8.710;2023-02-04T06:08:21;8.00;99.90
10123;DHT22;5101;49.038;8.710;2023-02-04T06:10:47;8.00;99.90
10123;DHT22;5101;49.038;8.710;2023-02-04T06:13:13;8.00;99.90
10123;DHT22;5101;49.038;8.710;2023-02-04T06:15:39;8.00;99.90
10123;DHT22;5101;49.038;8.710;2023-02-04T06:18:05;8.10;99.90
10123;DHT22;5101;49.038;8.710;2023-02-04T06:20:30;8.00;99.90
10123;DHT22;5101;49.038;8.710;2023-02-04T06:22:56;8.00;99.90
10123;DHT22;5101;49.038;8.710;2023-02-04T06:25:22;8.00;99.90
10123;DHT22;5101;49.038;8.710;2023-02-04T06:27:48;8.00;99.90
10123;DHT22;5101;49.038;8.710;2023-02-04T06:30:14;7.90;99.90
10123;DHT22;5101;49.038;8.710;2023-02-04T06:32:40;7.90;99.90
10123;DHT22;5101;49.038;8.710;2023-02-04T06:35:06;7.90;99.90
10123;DHT22;5101;49.038;8.710;2023-02-04T06:37:32;7.90;99.90
10123;DHT22;5101;49.038;8.710;2023-02-04T06:39:58;7.90;99.90
10123;DHT22;5101;49.038;8.710;2023-02-04T06:42:24;7.90;99.90
10123;DHT22;5101;49.038;8.710;2023-02-04T06:44:50;7.90;99.90
10123;DHT22;5101;49.038;8.710;2023-02-04T06:47:16;8.00;99.90
10123;DHT22;5101;49.038;8.710;2023-02-04T06:49:42;8.00;99.90
10123;DHT22;5101;49.038;8.710;2023-02-04T06:52:07;7.90;99.90
10123;DHT22;5101;49.038;8.710;2023-02-04T06:54:33;7.90;99.90
10123;DHT22;5101;49.038;8.710;2023-02-04T06:56:58;7.90;99.90
10123;DHT22;5101;49.038;8.710;2023-02-04T06:59:32;7.90;99.90
10123;DHT22;5101;49.038;8.710;2023-02-04T07:01:57;7.90;99.90
10123;DHT22;5101;49.038;8.710;2023-02-04T07:04:23;7.90;99.90
10123;DHT22;5101;49.038;8.710;2023-02-04T07:06:48;7.90;99.90
10123;DHT22;5101;49.038;8.710;2023-02-04T07:09:14;7.90;99.90
10123;DHT22;5101;49.038;8.710;2023-02-04T07:11:39;7.90;99.90
10123;DHT22;5101;49.038;8.710;2023-02-04T07:14:05;7.90;99.90
10123;DHT22;5101;49.038;8.710;2023-02-04T07:16:31;7.80;99.90
10123;DHT22;5101;49.038;8.710;2023-02-04T07:18:56;7.80;99.90
10123;DHT22;5101;49.038;8.710;2023-02-04T07:21:22;7.80;99.90
10123;DHT22;5101;49.038;8.710;2023-02-04T07:23:47;7.80;99.90
10123;DHT22;5101;49.038;8.710;2023-02-04T07:26:13;7.80;99.90
10123;DHT22;5101;49.038;8.710;2023-02-04T07:28:38;7.80;99.90
10123;DHT22;5101;49.038;8.710;2023-02-04T07:31:05;7.80;99.90
10123;DHT22;5101;49.038;8.710;2023-02-04T07:33:31;7.80;99.90
10123;DHT22;5101;49.038;8.710;2023-02-04T07:35:56;7.70;99.90
10123;DHT22;5101;49.038;8.710;2023-02-04T07:38:22;7.80;99.90
10123;DHT22;5101;49.038;8.710;2023-02-04T07:40:47;7.80;99.90
10123;DHT22;5101;49.038;8.710;2023-02-04T07:43:13;7.70;99.90
10123;DHT22;5101;49.038;8.710;2023-02-04T07:45:38;7.80;99.90
10123;DHT22;5101;49.038;8.710;2023-02-04T07:48:04;7.80;99.90
10123;DHT22;5101;49.038;8.710;2023-02-04T07:50:30;7.80;99.90
10123;DHT22;5101;49.038;8.710;2023-02-04T07:52:55;7.80;99.90
10123;DHT22;5101;49.038;8.710;2023-02-04T07:55:21;7.80;99.90
10123;DHT22;5101;49.038;8.710;2023-02-04T07:57:46;7.80;99.90
10123;DHT22;5101;49.038;8.710;2023-02-04T08:00:12;7.80;99.90
10123;DHT22;5101;49.038;8.710;2023-02-04T08:02:39;7.80;99.90
10123;DHT22;5101;49.038;8.710;2023-02-04T08:05:06;7.90;99.90
10123;DHT22;5101;49.038;8.710;2023-02-04T08:07:32;7.90;99.90
10123;DHT22;5101;49.038;8.710;2023-02-04T08:09:58;7.90;99.90
10123;DHT22;5101;49.038;8.710;2023-02-04T08:12:23;7.90;99.90
10123;DHT22;5101;49.038;8.710;2023-02-04T08:14:49;7.90;99.90
10123;DHT22;5101;49.038;8.710;2023-02-04T08:17:14;7.90;99.90
10123;DHT22;5101;49.038;8.710;2023-02-04T08:19:40;8.00;99.90
10123;DHT22;5101;49.038;8.710;2023-02-04T08:22:05;8.00;99.90
10123;DHT22;5101;49.038;8.710;2023-02-04T08:24:31;8.00;99.90
10123;DHT22;5101;49.038;8.710;2023-02-04T08:26:56;8.10;99.90
10123;DHT22;5101;49.038;8.710;2023-02-04T08:29:25;8.10;99.90
10123;DHT22;5101;49.038;8.710;2023-02-04T08:31:51;8.10;99.90
10123;DHT22;5101;49.038;8.710;2023-02-04T08:34:16;8.20;99.90
10123;DHT22;5101;49.038;8.710;2023-02-04T08:36:42;8.20;99.90
10123;DHT22;5101;49.038;8.710;2023-02-04T08:39:09;8.30;99.90
10123;DHT22;5101;49.038;8.710;2023-02-04T08:41:35;8.30;99.90
10123;DHT22;5101;49.038;8.710;2023-02-04T08:44:00;8.40;99.90
10123;DHT22;5101;49.038;8.710;2023-02-04T08:46:26;8.40;99.90
10123;DHT22;5101;49.038;8.710;2023-02-04T08:48:52;8.50;99.90
10123;DHT22;5101;49.038;8.710;2023-02-04T08:51:17;8.50;99.90
10123;DHT22;5101;49.038;8.710;2023-02-04T08:53:43;8.60;99.90
10123;DHT22;5101;49.038;8.710;2023-02-04T08:56:09;8.90;99.90
10123;DHT22;5101;49.038;8.710;2023-02-04T08:58:40;9.30;99.90
10123;DHT22;5101;49.038;8.710;2023-02-04T09:01:05;9.80;99.90
10123;DHT22;5101;49.038;8.710;2023-02-04T09:03:31;10.00;99.90
10123;DHT22;5101;49.038;8.710;2023-02-04T09:05:57;10.20;99.90
10123;DHT22;5101;49.038;8.710;2023-02-04T09:08:22;10.40;99.90
10123;DHT22;5101;49.038;8.710;2023-02-04T09:10:48;10.70;99.90
10123;DHT22;5101;49.038;8.710;2023-02-04T09:13:13;10.70;99.90
10123;DHT22;5101;49.038;8.710;2023-02-04T09:15:39;10.80;99.90
10123;DHT22;5101;49.038;8.710;2023-02-04T09:18:05;11.00;99.90
10123;DHT22;5101;49.038;8.710;2023-02-04T09:20:38;11.00;99.90
10123;DHT22;5101;49.038;8.710;2023-02-04T09:23:04;11.00;99.90
10123;DHT22;5101;49.038;8.710;2023-02-04T09:25:33;11.20;99.90
10123;DHT22;5101;49.038;8.710;2023-02-04T09:27:58;11.30;99.90
10123;DHT22;5101;49.038;8.710;2023-02-04T09:30:24;11.30;99.90
10123;DHT22;5101;49.038;8.710;2023-02-04T09:32:50;11.40;99.90
10123;DHT22;5101;49.038;8.710;2023-02-04T09:35:15;11.50;99.90
10123;DHT22;5101;49.038;8.710;2023-02-04T09:37:41;11.50;99.90
10123;DHT22;5101;49.038;8.710;2023-02-04T09:40:08;11.60;99.90
10123;DHT22;5101;49.038;8.710;2023-02-04T09:42:34;11.60;99.90
10123;DHT22;5101;49.038;8.710;2023-02-04T09:45:00;11.60;99.90
10123;DHT22;5101;49.038;8.710;2023-02-04T09:47:27;11.60;99.90
10123;DHT22;5101;49.038;8.710;2023-02-04T09:49:53;11.60;99.90
10123;DHT22;5101;49.038;8.710;2023-02-04T09:52:19;11.50;99.90
10123;DHT22;5101;49.038;8.710;2023-02-04T09:54:45;11.40;99.90
10123;DHT22;5101;49.038;8.710;2023-02-04T09:57:17;11.40;99.90
10123;DHT22;5101;49.038;8.710;2023-02-04T09:59:43;11.50;99.90
10123;DHT22;5101;49.038;8.710;2023-02-04T10:02:20;11.70;99.80
10123;DHT22;5101;49.038;8.710;2023-02-04T10:04:47;11.70;99.40
10123;DHT22;5101;49.038;8.710;2023-02-04T10:07:14;11.60;99.20
10123;DHT22;5101;49.038;8.710;2023-02-04T10:09:42;11.50;98.50
10123;DHT22;5101;49.038;8.710;2023-02-04T10:12:08;11.50;98.10
10123;DHT22;5101;49.038;8.710;2023-02-04T10:14:33;11.50;97.60
10123;DHT22;5101;49.038;8.710;2023-02-04T10:16:59;11.50;97.40
10123;DHT22;5101;49.038;8.710;2023-02-04T10:19:27;11.40;97.40
10123;DHT22;5101;49.038;8.710;2023-02-04T10:21:53;11.30;97.40
10123;DHT22;5101;49.038;8.710;2023-02-04T10:24:21;11.30;97.40
10123;DHT22;5101;49.038;8.710;2023-02-04T10:26:50;11.20;97.30
10123;DHT22;5101;49.038;8.710;2023-02-04T10:29:19;11.20;97.20
10123;DHT22;5101;49.038;8.710;2023-02-04T10:31:49;11.20;97.20
10123;DHT22;5101;49.038;8.710;2023-02-04T10:34:20;11.20;97.20
10123;DHT22;5101;49.038;8.710;2023-02-04T10:36:51;11.20;97.10
10123;DHT22;5101;49.038;8.710;2023-02-04T10:39:19;11.20;97.20
10123;DHT22;5101;49.038;8.710;2023-02-04T10:41:47;11.20;97.20
10123;DHT22;5101;49.038;8.710;2023-02-04T10:44:15;11.20;97.30
10123;DHT22;5101;49.038;8.710;2023-02-04T10:46:41;11.10;97.30
10123;DHT22;5101;49.038;8.710;2023-02-04T10:49:18;11.10;97.30
10123;DHT22;5101;49.038;8.710;2023-02-04T10:51:44;11.10;97.30
10123;DHT22;5101;49.038;8.710;2023-02-04T10:54:11;11.10;97.30
10123;DHT22;5101;49.038;8.710;2023-02-04T10:59:30;11.00;96.60
10123;DHT22;5101;49.038;8.710;2023-02-04T11:01:56;10.80;96.20
10123;DHT22;5101;49.038;8.710;2023-02-04T11:04:23;10.80;95.90
10123;DHT22;5101;49.038;8.710;2023-02-04T11:06:49;10.80;95.60
10123;DHT22;5101;49.038;8.710;2023-02-04T11:09:16;10.80;95.50
10123;DHT22;5101;49.038;8.710;2023-02-04T11:11:46;10.80;95.10
10123;DHT22;5101;49.038;8.710;2023-02-04T11:14:24;10.80;94.80
10123;DHT22;5101;49.038;8.710;2023-02-04T11:16:50;10.80;94.90
10123;DHT22;5101;49.038;8.710;2023-02-04T11:19:34;10.80;95.00
10123;DHT22;5101;49.038;8.710;2023-02-04T11:22:34;10.70;95.00
10123;DHT22;5101;49.038;8.710;2023-02-04T11:25:00;10.50;95.10
10123;DHT22;5101;49.038;8.710;2023-02-04T11:27:38;10.50;95.20
10123;DHT22;5101;49.038;8.710;2023-02-04T11:30:19;10.40;95.20
10123;DHT22;5101;49.038;8.710;2023-02-04T11:32:55;10.30;95.40
10123;DHT22;5101;49.038;8.710;2023-02-04T11:35:29;10.20;95.30
10123;DHT22;5101;49.038;8.710;2023-02-04T11:37:55;10.30;95.60
10123;DHT22;5101;49.038;8.710;2023-02-04T11:40:34;10.30;95.60
10123;DHT22;5101;49.038;8.710;2023-02-04T11:43:12;10.30;95.70
10123;DHT22;5101;49.038;8.710;2023-02-04T11:45:39;10.20;95.70
10123;DHT22;5101;49.038;8.710;2023-02-04T11:48:23;10.20;95.80
10123;DHT22;5101;49.038;8.710;2023-02-04T11:51:00;10.20;96.10
10123;DHT22;5101;49.038;8.710;2023-02-04T11:53:31;10.20;96.30
10123;DHT22;5101;49.038;8.710;2023-02-04T11:55:57;10.30;96.70
10123;DHT22;5101;49.038;8.710;2023-02-04T11:58:23;10.50;97.10
10123;DHT22;5101;49.038;8.710;2023-02-04T12:00:51;10.70;97.20
10123;DHT22;5101;49.038;8.710;2023-02-04T12:05:52;11.00;96.60
10123;DHT22;5101;49.038;8.710;2023-02-04T12:11:38;11.20;95.70
10123;DHT22;5101;49.038;8.710;2023-02-04T12:14:05;11.30;94.80
10123;DHT22;5101;49.038;8.710;2023-02-04T12:16:49;11.30;94.30
10123;DHT22;5101;49.038;8.710;2023-02-04T12:19:17;11.40;93.50
10123;DHT22;5101;49.038;8.710;2023-02-04T12:21:42;11.40;93.30
10123;DHT22;5101;49.038;8.710;2023-02-04T12:24:08;11.40;93.00
10123;DHT22;5101;49.038;8.710;2023-02-04T12:26:34;11.40;92.90
10123;DHT22;5101;49.038;8.710;2023-02-04T12:28:59;11.30;92.50
10123;DHT22;5101;49.038;8.710;2023-02-04T12:31:28;11.10;92.20
10123;DHT22;5101;49.038;8.710;2023-02-04T12:33:54;11.10;91.80
10123;DHT22;5101;49.038;8.710;2023-02-04T12:36:19;11.10;91.60
10123;DHT22;5101;49.038;8.710;2023-02-04T12:38:45;11.00;91.40
10123;DHT22;5101;49.038;8.710;2023-02-04T12:41:10;10.90;91.30
10123;DHT22;5101;49.038;8.710;2023-02-04T12:43:36;10.80;91.10
10123;DHT22;5101;49.038;8.710;2023-02-04T12:46:02;10.60;91.00
10123;DHT22;5101;49.038;8.710;2023-02-04T12:48:27;10.80;91.00
10123;DHT22;5101;49.038;8.710;2023-02-04T12:50:53;10.80;90.90
10123;DHT22;5101;49.038;8.710;2023-02-04T12:53:18;11.00;90.80
10123;DHT22;5101;49.038;8.710;2023-02-04T12:55:44;10.90;90.50
10123;DHT22;5101;49.038;8.710;2023-02-04T12:58:09;11.00;90.40
10123;DHT22;5101;49.038;8.710;2023-02-04T13:00:35;11.10;90.30
10123;DHT22;5101;49.038;8.710;2023-02-04T13:03:00;11.30;90.00
10123;DHT22;5101;49.038;8.710;2023-02-04T13:05:26;11.40;89.20
10123;DHT22;5101;49.038;8.710;2023-02-04T13:07:52;11.40;88.40
10123;DHT22;5101;49.038;8.710;2023-02-04T13:10:18;11.30;87.90
10123;DHT22;5101;49.038;8.710;2023-02-04T13:12:44;11.40;87.90
10123;DHT22;5101;49.038;8.710;2023-02-04T13:15:10;11.50;87.80
10123;DHT22;5101;49.038;8.710;2023-02-04T13:17:35;11.50;87.70
10123;DHT22;5101;49.038;8.710;2023-02-04T13:20:01;11.50;87.40
10123;DHT22;5101;49.038;8.710;2023-02-04T13:22:27;11.50;87.10
10123;DHT22;5101;49.038;8.710;2023-02-04T13:24:53;11.60;86.90
10123;DHT22;5101;49.038;8.710;2023-02-04T13:27:18;11.70;86.90
10123;DHT22;5101;49.038;8.710;2023-02-04T13:29:44;11.60;86.40
10123;DHT22;5101;49.038;8.710;2023-02-04T13:32:10;11.60;86.30
10123;DHT22;5101;49.038;8.710;2023-02-04T13:34:35;11.60;86.90
10123;DHT22;5101;49.038;8.710;2023-02-04T13:37:01;11.60;87.50
10123;DHT22;5101;49.038;8.710;2023-02-04T13:39:26;11.60;88.10
10123;DHT22;5101;49.038;8.710;2023-02-04T13:41:52;11.60;88.30
10123;DHT22;5101;49.038;8.710;2023-02-04T13:44:18;11.40;88.50
10123;DHT22;5101;49.038;8.710;2023-02-04T13:46:43;11.40;88.40
10123;DHT22;5101;49.038;8.710;2023-02-04T13:49:09;11.10;88.40
10123;DHT22;5101;49.038;8.710;2023-02-04T13:51:34;10.90;88.70
10123;DHT22;5101;49.038;8.710;2023-02-04T13:54:00;10.90;89.00
10123;DHT22;5101;49.038;8.710;2023-02-04T13:56:26;11.10;89.00
10123;DHT22;5101;49.038;8.710;2023-02-04T13:58:52;11.10;88.80
10123;DHT22;5101;49.038;8.710;2023-02-04T14:01:18;11.10;88.70
10123;DHT22;5101;49.038;8.710;2023-02-04T14:03:43;11.00;88.60
10123;DHT22;5101;49.038;8.710;2023-02-04T14:06:10;10.90;88.60
10123;DHT22;5101;49.038;8.710;2023-02-04T14:08:36;10.70;88.50
10123;DHT22;5101;49.038;8.710;2023-02-04T14:11:01;10.60;88.50
10123;DHT22;5101;49.038;8.710;2023-02-04T14:13:27;10.50;88.60
10123;DHT22;5101;49.038;8.710;2023-02-04T14:15:52;10.50;88.80
10123;DHT22;5101;49.038;8.710;2023-02-04T14:18:18;10.50;89.00
10123;DHT22;5101;49.038;8.710;2023-02-04T14:20:43;10.50;89.20
10123;DHT22;5101;49.038;8.710;2023-02-04T14:23:09;10.60;89.30
10123;DHT22;5101;49.038;8.710;2023-02-04T14:25:36;10.40;89.30
10123;DHT22;5101;49.038;8.710;2023-02-04T14:28:02;10.20;89.40
10123;DHT22;5101;49.038;8.710;2023-02-04T14:30:29;10.20;89.50
10123;DHT22;5101;49.038;8.710;2023-02-04T14:32:55;10.20;89.50
10123;DHT22;5101;49.038;8.710;2023-02-04T14:35:22;10.20;89.30
10123;DHT22;5101;49.038;8.710;2023-02-04T14:37:47;10.30;89.30
10123;DHT22;5101;49.038;8.710;2023-02-04T14:40:14;10.40;89.10
10123;DHT22;5101;49.038;8.710;2023-02-04T14:42:40;10.50;88.80
10123;DHT22;5101;49.038;8.710;2023-02-04T14:45:12;10.50;88.10
10123;DHT22;5101;49.038;8.710;2023-02-04T14:47:38;10.40;87.20
10123;DHT22;5101;49.038;8.710;2023-02-04T14:50:10;10.20;86.60
10123;DHT22;5101;49.038;8.710;2023-02-04T14:52:35;10.40;86.60
10123;DHT22;5101;49.038;8.710;2023-02-04T14:55:01;10.50;86.50
10123;DHT22;5101;49.038;8.710;2023-02-04T14:57:27;10.40;86.10
10123;DHT22;5101;49.038;8.710;2023-02-04T14:59:52;10.40;85.90
10123;DHT22;5101;49.038;8.710;2023-02-04T15:02:18;10.40;86.40
10123;DHT22;5101;49.038;8.710;2023-02-04T15:04:44;10.40;85.80
10123;DHT22;5101;49.038;8.710;2023-02-04T15:07:10;10.30;85.60
10123;DHT22;5101;49.038;8.710;2023-02-04T15:09:36;10.40;85.50
10123;DHT22;5101;49.038;8.710;2023-02-04T15:12:02;10.40;85.40
10123;DHT22;5101;49.038;8.710;2023-02-04T15:14:28;10.30;85.10
10123;DHT22;5101;49.038;8.710;2023-02-04T15:16:53;10.30;84.90
10123;DHT22;5101;49.038;8.710;2023-02-04T15:19:19;10.20;84.60
10123;DHT22;5101;49.038;8.710;2023-02-04T15:21:45;10.10;84.80
10123;DHT22;5101;49.038;8.710;2023-02-04T15:24:11;10.00;84.90
10123;DHT22;5101;49.038;8.710;2023-02-04T15:26:37;10.10;85.20
10123;DHT22;5101;49.038;8.710;2023-02-04T15:29:03;10.20;85.60
10123;DHT22;5101;49.038;8.710;2023-02-04T15:31:28;10.30;85.70
10123;DHT22;5101;49.038;8.710;2023-02-04T15:33:54;10.30;86.00
10123;DHT22;5101;49.038;8.710;2023-02-04T15:36:20;10.30;86.20
10123;DHT22;5101;49.038;8.710;2023-02-04T15:38:46;10.30;86.20
10123;DHT22;5101;49.038;8.710;2023-02-04T15:41:11;10.20;86.10
10123;DHT22;5101;49.038;8.710;2023-02-04T15:43:37;10.20;86.00
10123;DHT22;5101;49.038;8.710;2023-02-04T15:46:03;10.20;85.90
10123;DHT22;5101;49.038;8.710;2023-02-04T15:48:28;10.20;85.80
10123;DHT22;5101;49.038;8.710;2023-02-04T15:50:54;10.20;85.80
10123;DHT22;5101;49.038;8.710;2023-02-04T15:53:21;10.20;85.90
10123;DHT22;5101;49.038;8.710;2023-02-04T15:55:46;10.20;86.20
10123;DHT22;5101;49.038;8.710;2023-02-04T15:58:12;10.30;87.10
10123;DHT22;5101;49.038;8.710;2023-02-04T16:00:38;10.20;86.50